createdAt,value
2022-10-31T00:00:46.887Z,80.34
2022-10-31T00:03:16.441Z,80.63
2022-10-31T00:05:45.139Z,80.40
2022-10-31T00:08:13.174Z,79.30
2022-10-31T00:10:41.085Z,78.93
2022-10-31T00:13:09.553Z,78.57
2022-10-31T00:15:38.847Z,80.03
2022-10-31T00:18:07.818Z,79.45
2022-10-31T00:20:38.005Z,78.82
2022-10-31T00:23:07.206Z,78.97
2022-10-31T00:25:37.137Z,79.05
2022-10-31T00:28:06.018Z,78.87
2022-10-31T00:30:34.235Z,78.66
2022-10-31T00:33:02.367Z,79.97
2022-10-31T00:35:30.559Z,78.71
2022-10-31T00:37:59.736Z,78.53
2022-10-31T00:40:27.679Z,78.57
2022-10-31T00:42:55.595Z,78.74
2022-10-31T00:45:25.051Z,79.20
2022-10-31T00:47:52.895Z,79.53
2022-10-31T00:50:20.733Z,80.79
2022-10-31T00:52:48.817Z,80.97
2022-10-31T00:55:18.016Z,79.47
2022-10-31T00:57:48.520Z,79.88
2022-10-31T01:00:17.496Z,79.00
2022-10-31T01:02:45.813Z,80.87
2022-10-31T01:05:13.904Z,79.88
2022-10-31T01:07:42.852Z,79.29
2022-10-31T01:10:11.602Z,79.77
2022-10-31T01:12:42.097Z,79.47
2022-10-31T01:15:12.129Z,80.63
2022-10-31T01:17:40.028Z,80.72
2022-10-31T01:20:09.947Z,80.57
2022-10-31T01:22:38.389Z,80.90
2022-10-31T01:25:07.604Z,80.80
2022-10-31T01:27:35.493Z,80.59
2022-10-31T01:30:05.466Z,80.44
2022-10-31T01:32:33.376Z,81.18
2022-10-31T01:35:01.230Z,80.40
2022-10-31T01:37:29.236Z,80.44
2022-10-31T01:39:57.109Z,80.20
2022-10-31T01:42:25.551Z,80.84
2022-10-31T01:44:56.974Z,81.04
2022-10-31T01:47:45.730Z,81.14
2022-10-31T01:50:22.775Z,81.21
2022-10-31T01:52:53.537Z,81.00
2022-10-31T01:55:30.076Z,80.25
2022-10-31T01:58:03.371Z,80.38
2022-10-31T02:00:32.493Z,80.76
2022-10-31T02:03:02.506Z,81.47
2022-10-31T02:05:32.415Z,81.06
2022-10-31T02:08:04.553Z,81.55
2022-10-31T02:10:34.919Z,81.65
2022-10-31T02:13:05.126Z,81.63
2022-10-31T02:15:34.767Z,80.99
2022-10-31T02:18:04.685Z,81.00
2022-10-31T02:20:38.113Z,80.54
2022-10-31T02:23:59.778Z,80.95
2022-10-31T02:27:06.397Z,80.65
2022-10-31T02:30:12.019Z,80.26
2022-10-31T02:32:55.721Z,80.69
2022-10-31T02:35:38.555Z,80.31
2022-10-31T02:38:18.513Z,79.67
2022-10-31T02:40:53.409Z,79.20
2022-10-31T02:43:56.664Z,80.11
2022-10-31T02:46:30.171Z,80.03
2022-10-31T02:49:05.823Z,79.96
2022-10-31T02:51:33.838Z,80.24
2022-10-31T02:54:01.752Z,80.86
2022-10-31T02:56:29.590Z,81.43
2022-10-31T02:59:01.821Z,81.49
2022-10-31T03:01:51.294Z,82.18
2022-10-31T03:04:36.633Z,82.33
2022-10-31T03:07:13.262Z,82.54
2022-10-31T03:09:49.145Z,81.65
2022-10-31T03:12:24.820Z,81.72
2022-10-31T03:14:58.605Z,81.85
2022-10-31T03:17:37.824Z,81.72
2022-10-31T03:20:10.007Z,81.77
2022-10-31T03:22:40.899Z,81.02
2022-10-31T03:25:10.258Z,82.03
2022-10-31T03:27:41.164Z,81.48
2022-10-31T03:30:10.346Z,81.24
2022-10-31T03:33:02.135Z,81.19
2022-10-31T03:35:35.389Z,81.15
2022-10-31T03:38:07.863Z,80.76
2022-10-31T03:40:39.177Z,81.28
2022-10-31T03:43:12.479Z,80.49
2022-10-31T03:45:45.163Z,80.45
2022-10-31T03:48:14.551Z,80.65
2022-10-31T03:50:51.101Z,80.82
2022-10-31T03:53:24.832Z,80.06
2022-10-31T03:55:58.818Z,80.09
2022-10-31T03:58:30.848Z,80.94
2022-10-31T04:01:02.967Z,81.20
2022-10-31T04:03:34.759Z,80.30
2022-10-31T04:06:09.179Z,80.12
2022-10-31T04:08:43.982Z,79.86
2022-10-31T04:11:18.464Z,79.79
2022-10-31T04:13:51.072Z,79.60
2022-10-31T04:16:25.177Z,79.44
2022-10-31T04:18:53.135Z,79.55
2022-10-31T04:21:30.103Z,79.73
2022-10-31T04:23:59.411Z,79.50
2022-10-31T04:26:30.222Z,79.51
2022-10-31T04:28:59.188Z,80.14
2022-10-31T04:31:29.342Z,79.91
2022-10-31T04:33:57.223Z,79.58
2022-10-31T04:36:26.550Z,79.75
2022-10-31T04:38:55.094Z,80.26
2022-10-31T04:41:35.957Z,79.32
2022-10-31T04:44:06.007Z,79.40
2022-10-31T04:46:34.077Z,79.14
2022-10-31T04:49:04.088Z,79.19
2022-10-31T04:51:33.328Z,79.53
2022-10-31T04:54:01.983Z,79.04
2022-10-31T04:56:30.059Z,78.93
2022-10-31T04:59:03.454Z,78.21
2022-10-31T05:01:42.262Z,78.32
2022-10-31T05:04:11.826Z,78.57
2022-10-31T05:06:40.982Z,78.55
2022-10-31T05:09:09.858Z,78.46
2022-10-31T05:11:37.824Z,78.63
2022-10-31T05:14:34.984Z,78.79
2022-10-31T05:17:23.066Z,78.89
2022-10-31T05:20:28.601Z,79.25
2022-10-31T05:23:06.822Z,80.16
2022-10-31T05:25:34.675Z,79.54
2022-10-31T05:28:05.536Z,79.25
2022-10-31T05:30:35.481Z,79.08
2022-10-31T05:33:05.134Z,79.34
2022-10-31T05:35:56.083Z,79.28
2022-10-31T05:38:36.183Z,79.90
2022-10-31T05:41:24.941Z,79.43
2022-10-31T05:43:55.715Z,80.44
2022-10-31T05:46:29.351Z,80.40
2022-10-31T05:49:03.340Z,80.40
2022-10-31T05:51:49.777Z,80.28
2022-10-31T05:54:19.003Z,79.42
2022-10-31T05:56:47.681Z,79.65
2022-10-31T05:59:15.627Z,79.84
2022-10-31T06:01:43.626Z,79.57
2022-10-31T06:04:27.303Z,79.51
2022-10-31T06:06:55.194Z,80.17
2022-10-31T06:09:25.787Z,80.33
2022-10-31T06:11:53.740Z,80.04
2022-10-31T06:14:27.309Z,80.20
2022-10-31T06:16:57.822Z,79.63
2022-10-31T06:19:44.287Z,80.67
2022-10-31T06:22:16.818Z,81.94
2022-10-31T06:24:46.719Z,80.38
2022-10-31T06:27:30.727Z,81.20
2022-10-31T06:30:01.148Z,81.42
2022-10-31T06:32:37.249Z,80.74
2022-10-31T06:35:05.797Z,81.30
2022-10-31T06:37:35.438Z,81.00
2022-10-31T06:40:15.774Z,81.25
2022-10-31T06:43:04.243Z,81.73
2022-10-31T06:45:33.228Z,80.46
2022-10-31T06:48:19.981Z,80.18
2022-10-31T06:51:06.908Z,80.00
2022-10-31T06:53:34.859Z,80.12
2022-10-31T06:56:06.400Z,79.78
2022-10-31T06:58:39.175Z,79.57
2022-10-31T07:01:09.463Z,79.72
2022-10-31T07:03:37.543Z,80.36
2022-10-31T07:06:05.646Z,80.55
2022-10-31T07:08:34.526Z,80.06
2022-10-31T07:11:03.133Z,79.79
2022-10-31T07:13:33.741Z,79.12
2022-10-31T07:16:12.935Z,78.90
2022-10-31T07:18:41.633Z,78.62
2022-10-31T07:21:10.406Z,78.98
2022-10-31T07:23:38.312Z,79.39
2022-10-31T07:26:24.582Z,77.51
2022-10-31T07:28:54.524Z,77.93
2022-10-31T07:31:25.655Z,78.62
2022-10-31T07:33:56.246Z,78.68
2022-10-31T07:36:26.661Z,78.17
2022-10-31T07:38:59.367Z,77.41
2022-10-31T07:41:27.347Z,77.30
2022-10-31T07:43:56.950Z,76.77
2022-10-31T07:46:56.977Z,76.57
2022-10-31T07:49:54.101Z,76.67
2022-10-31T07:52:40.871Z,76.48
2022-10-31T07:55:27.352Z,76.97
2022-10-31T07:58:00.519Z,77.69
2022-10-31T08:00:32.526Z,77.19
2022-10-31T08:03:02.197Z,77.78
2022-10-31T08:05:49.140Z,77.07
2022-10-31T08:08:38.503Z,76.96
2022-10-31T08:11:08.959Z,76.39
2022-10-31T08:13:36.909Z,76.60
2022-10-31T08:16:08.419Z,76.71
2022-10-31T08:18:41.563Z,76.82
2022-10-31T08:21:12.475Z,76.90
2022-10-31T08:23:40.471Z,75.92
2022-10-31T08:26:09.420Z,75.69
2022-10-31T08:28:37.320Z,76.82
2022-10-31T08:31:07.021Z,76.77
2022-10-31T08:33:40.733Z,76.67
2022-10-31T08:36:20.941Z,77.01
2022-10-31T08:39:09.054Z,77.48
2022-10-31T08:41:36.886Z,77.90
2022-10-31T08:44:04.974Z,77.77
2022-10-31T08:46:35.382Z,77.40
2022-10-31T08:49:03.457Z,77.69
2022-10-31T08:51:31.529Z,77.09
2022-10-31T08:53:59.490Z,77.13
2022-10-31T08:56:45.804Z,76.75
2022-10-31T08:59:33.963Z,76.73
2022-10-31T09:02:32.200Z,77.07
2022-10-31T09:05:01.839Z,76.77
2022-10-31T09:07:30.235Z,76.61
2022-10-31T09:09:59.356Z,76.99
2022-10-31T09:12:28.748Z,76.87
2022-10-31T09:15:02.930Z,76.24
2022-10-31T09:17:39.211Z,75.95
2022-10-31T09:20:37.603Z,75.56
2022-10-31T09:23:07.423Z,75.94
2022-10-31T09:25:38.975Z,75.62
2022-10-31T09:28:26.063Z,75.64
2022-10-31T09:30:56.410Z,75.15
2022-10-31T09:33:44.154Z,74.14
2022-10-31T09:36:45.177Z,73.88
2022-10-31T09:39:16.352Z,73.68
2022-10-31T09:42:00.090Z,74.82
2022-10-31T09:44:41.613Z,74.79
2022-10-31T09:47:23.990Z,74.70
2022-10-31T09:50:20.310Z,74.48
2022-10-31T09:53:00.146Z,73.78
2022-10-31T09:55:36.930Z,74.46
2022-10-31T09:58:07.670Z,73.56
2022-10-31T10:00:37.144Z,72.50
2022-10-31T10:03:13.566Z,71.43
2022-10-31T10:05:48.672Z,71.58
2022-10-31T10:08:29.189Z,69.84
2022-10-31T10:11:37.854Z,69.61
2022-10-31T10:14:31.953Z,69.81
2022-10-31T10:17:13.920Z,70.02
2022-10-31T10:19:58.647Z,68.88
2022-10-31T10:22:33.971Z,68.45
2022-10-31T10:25:15.977Z,68.85
2022-10-31T10:28:03.021Z,67.58
2022-10-31T10:30:37.787Z,67.71
2022-10-31T10:33:11.622Z,68.01
2022-10-31T10:35:45.090Z,66.58
2022-10-31T10:38:22.089Z,65.14
2022-10-31T10:40:50.219Z,63.75
2022-10-31T10:43:24.821Z,66.52
2022-10-31T10:46:18.904Z,64.17
2022-10-31T10:48:52.541Z,64.28
2022-10-31T10:51:38.917Z,66.61
2022-10-31T10:54:44.052Z,65.96
2022-10-31T10:57:24.659Z,62.38
2022-10-31T10:59:53.361Z,63.60
2022-10-31T11:02:24.097Z,62.55
2022-10-31T11:04:54.680Z,63.33
2022-10-31T11:07:23.196Z,63.72
2022-10-31T11:09:52.404Z,63.80
2022-10-31T11:12:24.015Z,63.67
2022-10-31T11:14:56.805Z,63.87
2022-10-31T11:17:32.314Z,62.78
2022-10-31T11:20:08.651Z,61.14
2022-10-31T11:22:36.784Z,61.72
2022-10-31T11:25:23.299Z,59.09
2022-10-31T11:28:01.454Z,58.71
2022-10-31T11:30:30.247Z,59.43
2022-10-31T11:32:59.187Z,60.19
2022-10-31T11:35:27.863Z,59.90
2022-10-31T11:37:59.767Z,59.21
2022-10-31T11:40:29.456Z,59.11
2022-10-31T11:42:59.683Z,59.12
2022-10-31T11:45:34.713Z,61.06
2022-10-31T11:48:04.397Z,60.46
2022-10-31T11:50:39.524Z,60.05
2022-10-31T11:53:16.929Z,60.13
2022-10-31T11:55:47.583Z,60.83
2022-10-31T11:58:26.722Z,60.14
2022-10-31T12:00:56.583Z,61.97
2022-10-31T12:03:41.235Z,60.97
2022-10-31T12:06:15.334Z,63.47
2022-10-31T12:08:44.124Z,59.62
2022-10-31T12:11:29.308Z,62.71
2022-10-31T12:14:09.189Z,62.83
2022-10-31T12:16:44.946Z,62.26
2022-10-31T12:19:23.855Z,62.35
2022-10-31T12:22:09.294Z,63.90
2022-10-31T12:24:56.983Z,63.13
2022-10-31T12:27:55.570Z,62.70
2022-10-31T12:30:27.820Z,63.49
2022-10-31T12:33:13.755Z,62.34
2022-10-31T12:35:49.957Z,61.56
2022-10-31T12:38:32.306Z,61.33
2022-10-31T12:41:15.856Z,61.82
2022-10-31T12:43:48.172Z,61.17
2022-10-31T12:46:26.727Z,62.39
2022-10-31T12:49:17.481Z,61.90
2022-10-31T12:51:59.024Z,61.56
2022-10-31T12:54:47.890Z,62.50
2022-10-31T12:57:24.988Z,62.05
2022-10-31T12:59:59.879Z,63.60
2022-10-31T13:02:34.170Z,64.86
2022-10-31T13:05:05.303Z,64.79
2022-10-31T13:07:40.011Z,65.12
2022-10-31T13:10:16.735Z,66.39
2022-10-31T13:12:47.756Z,65.83
2022-10-31T13:15:20.462Z,63.64
2022-10-31T13:17:52.734Z,64.56
2022-10-31T13:20:26.146Z,65.09
2022-10-31T13:22:58.323Z,64.40
2022-10-31T13:25:30.314Z,64.76
2022-10-31T13:28:03.269Z,63.33
2022-10-31T13:30:35.902Z,63.89
2022-10-31T13:33:08.318Z,64.79
2022-10-31T13:35:44.087Z,64.18
2022-10-31T13:38:20.648Z,66.00
2022-10-31T13:40:56.666Z,65.15
2022-10-31T13:43:33.148Z,66.46
2022-10-31T13:46:02.381Z,66.13
2022-10-31T13:48:40.060Z,67.01
2022-10-31T13:51:10.300Z,68.96
2022-10-31T13:53:41.623Z,68.28
2022-10-31T13:56:23.210Z,67.87
2022-10-31T13:59:04.134Z,67.54
2022-10-31T14:01:35.184Z,68.95
2022-10-31T14:04:13.797Z,68.87
2022-10-31T14:06:49.278Z,68.97
2022-10-31T14:09:20.458Z,69.75
2022-10-31T14:11:49.900Z,68.86
2022-10-31T14:14:19.222Z,69.55
2022-10-31T14:16:55.844Z,70.61
2022-10-31T14:19:24.841Z,70.83
2022-10-31T14:21:53.293Z,70.81
2022-10-31T14:24:36.145Z,70.73
2022-10-31T14:27:08.492Z,71.09
2022-10-31T14:29:36.526Z,71.54
2022-10-31T14:32:16.603Z,71.33
2022-10-31T14:34:53.946Z,72.11
2022-10-31T14:37:40.975Z,72.65
2022-10-31T14:40:25.846Z,72.68
2022-10-31T14:43:35.224Z,73.12
2022-10-31T14:46:06.061Z,73.12
2022-10-31T14:48:54.086Z,73.23
2022-10-31T14:51:24.091Z,74.42
2022-10-31T14:53:54.584Z,74.16
2022-10-31T14:56:28.020Z,74.09
2022-10-31T14:58:59.118Z,72.79
2022-10-31T15:01:30.350Z,73.29
2022-10-31T15:04:23.019Z,73.23
2022-10-31T15:06:56.425Z,74.94
2022-10-31T15:09:25.822Z,75.87
2022-10-31T15:11:54.002Z,74.49
2022-10-31T15:14:26.589Z,74.65
2022-10-31T15:16:54.600Z,75.30
2022-10-31T15:19:26.951Z,76.38
2022-10-31T15:21:57.724Z,75.84
2022-10-31T15:24:35.690Z,77.35
2022-10-31T15:27:05.464Z,75.81
2022-10-31T15:29:33.905Z,76.92
2022-10-31T15:32:03.721Z,77.07
2022-10-31T15:34:40.133Z,77.07
2022-10-31T15:37:14.684Z,76.65
2022-10-31T15:39:42.678Z,76.88
2022-10-31T15:42:21.819Z,76.18
2022-10-31T15:44:53.917Z,77.79
2022-10-31T15:47:25.261Z,78.43
2022-10-31T15:49:56.163Z,79.10
2022-10-31T15:52:33.257Z,79.54
2022-10-31T15:55:03.828Z,78.63
2022-10-31T15:57:32.511Z,77.77
2022-10-31T16:00:00.614Z,80.97
2022-10-31T16:02:29.669Z,79.48
2022-10-31T16:05:01.481Z,80.72
2022-10-31T16:07:31.330Z,80.02
2022-10-31T16:10:01.104Z,79.72
2022-10-31T16:12:34.094Z,81.73
2022-10-31T16:15:01.974Z,81.10
2022-10-31T16:17:30.334Z,81.39
2022-10-31T16:20:01.808Z,81.25
2022-10-31T16:22:32.101Z,81.64
2022-10-31T16:25:06.926Z,81.84
2022-10-31T16:27:36.772Z,80.84
2022-10-31T16:30:21.338Z,80.95
2022-10-31T16:32:58.991Z,81.47
2022-10-31T16:35:33.466Z,83.01
2022-10-31T16:38:01.316Z,83.05
2022-10-31T16:40:29.455Z,82.56
2022-10-31T16:42:59.833Z,81.29
2022-10-31T16:45:29.654Z,81.62
2022-10-31T16:48:05.304Z,83.33
2022-10-31T16:50:34.955Z,82.20
2022-10-31T16:53:18.240Z,83.33
2022-10-31T16:55:48.258Z,82.87
2022-10-31T16:58:19.743Z,82.84
2022-10-31T17:00:47.857Z,81.48
2022-10-31T17:03:15.759Z,82.78
2022-10-31T17:05:44.991Z,82.13
2022-10-31T17:08:12.963Z,81.68
2022-10-31T17:10:42.715Z,82.30
2022-10-31T17:13:17.723Z,83.51
2022-10-31T17:15:49.517Z,83.80
2022-10-31T17:18:21.686Z,83.90
2022-10-31T17:20:59.804Z,83.55
2022-10-31T17:23:28.037Z,84.06
2022-10-31T17:25:56.288Z,83.31
2022-10-31T17:28:25.072Z,81.75
2022-10-31T17:30:54.778Z,81.79
2022-10-31T17:33:22.899Z,81.99
2022-10-31T17:35:50.749Z,82.91
2022-10-31T17:38:20.017Z,82.31
2022-10-31T17:43:20.605Z,82.98
2022-10-31T17:45:49.018Z,84.67
2022-10-31T17:48:16.859Z,84.58
2022-10-31T17:50:44.965Z,83.44
2022-10-31T17:53:12.786Z,84.61
2022-10-31T17:55:42.234Z,82.87
2022-10-31T17:58:12.287Z,81.79
2022-10-31T18:00:44.754Z,81.46
2022-10-31T18:03:15.738Z,81.63
2022-10-31T18:05:52.661Z,81.68
2022-10-31T18:08:20.523Z,81.63
2022-10-31T18:10:49.720Z,82.32
2022-10-31T18:13:17.515Z,81.41
2022-10-31T18:15:45.357Z,80.93
2022-10-31T18:18:13.196Z,82.93
2022-10-31T18:20:41.653Z,82.44
2022-10-31T18:23:09.555Z,82.57
2022-10-31T18:25:38.878Z,83.76
2022-10-31T18:28:08.408Z,83.04
2022-10-31T18:30:40.603Z,83.96
2022-10-31T18:33:08.467Z,82.91
2022-10-31T18:35:37.852Z,84.14
2022-10-31T18:38:07.003Z,83.50
2022-10-31T18:40:36.203Z,83.76
2022-10-31T18:43:04.160Z,84.29
2022-10-31T18:45:45.871Z,84.04
2022-10-31T18:48:15.526Z,84.54
2022-10-31T18:50:43.606Z,85.18
2022-10-31T18:53:11.523Z,83.64
2022-10-31T18:55:43.993Z,82.73
2022-10-31T18:58:15.509Z,84.03
2022-10-31T19:00:44.853Z,83.62
2022-10-31T19:03:12.873Z,83.59
2022-10-31T19:05:40.714Z,84.40
2022-10-31T19:08:09.220Z,85.20
2022-10-31T19:10:37.628Z,85.25
2022-10-31T19:13:06.265Z,84.66
2022-10-31T19:15:36.041Z,83.65
2022-10-31T19:18:05.666Z,83.03
2022-10-31T19:20:33.779Z,82.83
2022-10-31T19:23:01.936Z,83.36
2022-10-31T19:25:29.912Z,84.46
2022-10-31T19:27:57.844Z,84.22
2022-10-31T19:30:25.868Z,83.83
2022-10-31T19:32:55.193Z,83.04
2022-10-31T19:35:24.406Z,83.48
2022-10-31T19:37:52.221Z,82.81
2022-10-31T19:40:20.248Z,82.17
2022-10-31T19:42:48.091Z,82.05
2022-10-31T19:45:16.036Z,82.09
2022-10-31T19:47:43.911Z,81.79
2022-10-31T19:50:11.794Z,82.19
2022-10-31T19:52:41.019Z,82.17
2022-10-31T19:55:09.514Z,82.02
2022-10-31T19:58:02.763Z,82.86
2022-10-31T20:00:25.155Z,82.49
2022-10-31T20:02:52.983Z,82.55
2022-10-31T20:05:20.852Z,83.16
2022-10-31T20:07:50.056Z,83.94
2022-10-31T20:10:17.952Z,83.94
2022-10-31T20:12:45.793Z,83.68
2022-10-31T20:15:13.641Z,83.96
2022-10-31T20:17:41.496Z,83.72
2022-10-31T20:20:09.755Z,83.80
2022-10-31T20:22:37.728Z,83.05
2022-10-31T20:25:08.067Z,82.51
2022-10-31T20:27:36.034Z,82.07
2022-10-31T20:30:04.168Z,82.42
2022-10-31T20:32:32.011Z,82.61
2022-10-31T20:34:59.944Z,82.74
2022-10-31T20:37:27.812Z,82.53
2022-10-31T20:39:56.630Z,82.29
2022-10-31T20:42:26.266Z,82.22
2022-10-31T20:44:54.106Z,81.79
2022-10-31T20:47:23.485Z,82.13
2022-10-31T20:49:53.766Z,83.20
2022-10-31T20:52:21.652Z,82.69
2022-10-31T20:54:49.539Z,81.87
2022-10-31T20:57:17.379Z,82.78
2022-10-31T20:59:46.676Z,82.86
2022-10-31T21:02:14.544Z,82.79
2022-10-31T21:04:42.472Z,83.66
2022-10-31T21:07:10.427Z,84.94
2022-10-31T21:09:38.264Z,83.51
2022-10-31T21:12:06.319Z,83.30
2022-10-31T21:14:34.434Z,83.86
2022-10-31T21:17:04.028Z,84.10
2022-10-31T21:19:31.948Z,84.14
2022-10-31T21:21:59.860Z,83.58
2022-10-31T21:24:28.850Z,83.03
2022-10-31T21:26:56.754Z,82.72
2022-10-31T21:29:25.044Z,83.03
2022-10-31T21:31:53.142Z,83.40
2022-10-31T21:34:22.560Z,83.53
2022-10-31T21:36:50.472Z,83.72
2022-10-31T21:39:18.434Z,84.48
2022-10-31T21:41:46.252Z,84.09
2022-10-31T21:44:14.412Z,83.42
2022-10-31T21:46:42.265Z,84.68
2022-10-31T21:49:11.587Z,84.67
2022-10-31T21:51:42.962Z,85.36
2022-10-31T21:54:28.681Z,84.72
2022-10-31T21:56:56.902Z,84.61
2022-10-31T21:59:24.807Z,85.75
2022-10-31T22:01:53.443Z,84.96
2022-10-31T22:04:21.367Z,84.56
2022-10-31T22:06:50.986Z,85.83
2022-10-31T22:09:20.140Z,85.45
2022-10-31T22:11:48.077Z,86.75
2022-10-31T22:14:16.561Z,85.00
2022-10-31T22:16:44.507Z,87.02
2022-10-31T22:19:13.854Z,85.83
2022-10-31T22:21:43.137Z,85.67
2022-10-31T22:24:12.901Z,85.88
2022-10-31T22:26:41.338Z,87.01
2022-10-31T22:29:13.624Z,86.45
2022-10-31T22:31:43.673Z,86.27
2022-10-31T22:34:12.210Z,85.87
2022-10-31T22:36:40.208Z,84.84
2022-10-31T22:39:08.845Z,84.75
2022-10-31T22:41:38.149Z,85.59
2022-10-31T22:44:06.490Z,84.63
2022-10-31T22:46:36.880Z,86.46
2022-10-31T22:49:07.816Z,87.97
2022-10-31T22:51:38.036Z,90.23
2022-10-31T22:54:08.139Z,89.27
2022-10-31T22:56:36.594Z,90.37
2022-10-31T22:59:06.288Z,91.22
2022-10-31T23:01:35.445Z,92.17
2022-10-31T23:04:03.765Z,90.42
2022-10-31T23:06:33.196Z,91.80
2022-10-31T23:09:02.834Z,89.75
2022-10-31T23:11:33.236Z,89.05
2022-10-31T23:14:10.894Z,89.85
2022-10-31T23:16:44.401Z,89.95
2022-10-31T23:19:12.863Z,90.34
2022-10-31T23:22:00.002Z,89.64
2022-10-31T23:24:32.821Z,89.17
2022-10-31T23:27:10.710Z,91.01
2022-10-31T23:29:43.265Z,90.95
2022-10-31T23:32:16.649Z,91.68
2022-10-31T23:34:44.815Z,91.21
2022-10-31T23:37:13.005Z,91.78
2022-10-31T23:39:41.285Z,91.46
2022-10-31T23:42:09.377Z,90.31
2022-10-31T23:44:37.445Z,90.48
2022-10-31T23:47:05.491Z,89.59
2022-10-31T23:49:35.238Z,89.26
2022-10-31T23:52:03.672Z,88.79
2022-10-31T23:54:31.981Z,88.32
2022-10-31T23:57:00.002Z,89.38
2022-10-31T23:59:29.091Z,90.22
